Time;durP1;ratioP1;P1;durP2;ratioP2;P2;SDS_P1;SDS_P2;PMS_P1;PMS_P2;Temp;Humidity;BMP_temperature;BMP_pressure;BME280_temperature;BME280_humidity;BME280_pressure;Samples;Min_cycle;Max_cycle;Signal;HPM_P1;HPM_P2
2023/07/20 00:01:29;;;;;;;;;;;;;;;21.36;100.00;95424.81;10470760;28;1836;-68
2023/07/20 00:06:49;;;;;;;;;;;;;;;21.22;100.00;95425.19;10476112;28;1937;-69
2023/07/20 00:11:53;;;;;;;;;;;;;;;20.99;100.00;95433.16;10476308;28;1823;-69
2023/07/20 00:16:56;;;;;;;;;;;;;;;21.15;100.00;95433.22;10449275;28;2315;-68
2023/07/20 00:21:59;;;;;;;;;;;;;;;21.08;100.00;95428.34;10470523;28;1953;-68
2023/07/20 00:27:02;;;;;;;;;;;;;;;21.01;100.00;95420.75;10476593;28;2395;-68
2023/07/20 00:32:06;;;;;;;;;;;;;;;20.88;100.00;95427.41;10482837;28;1885;-68
2023/07/20 00:37:09;;;;;;;;;;;;;;;20.87;100.00;95431.28;10479582;28;1983;-69
2023/07/20 00:42:12;;;;;;;;;;;;;;;20.97;100.00;95447.16;10482070;28;5074;-70
2023/07/20 00:47:15;;;;;;;;;;;;;;;21.07;100.00;95445.88;10484545;28;2015;-69
2023/07/20 00:52:18;;;;;;;;;;;;;;;20.90;100.00;95441.50;10478998;28;1980;-68
2023/07/20 00:57:22;;;;;;;;;;;;;;;20.95;100.00;95448.66;10481259;28;2251;-68
2023/07/20 01:02:25;;;;;;;;;;;;;;;20.84;100.00;95433.91;10476649;28;1929;-69
2023/07/20 01:07:28;;;;;;;;;;;;;;;20.69;100.00;95443.63;10473647;28;1948;-68
2023/07/20 01:12:31;;;;;;;;;;;;;;;20.79;100.00;95446.66;10479936;28;1995;-69
2023/07/20 01:17:34;;;;;;;;;;;;;;;20.67;100.00;95432.25;10472690;28;1999;-70
2023/07/20 01:22:40;;;;;;;;;;;;;;;20.68;100.00;95440.13;10475650;28;2496;-70
2023/07/20 01:27:43;;;;;;;;;;;;;;;20.75;100.00;95423.94;10480229;28;1977;-69
2023/07/20 01:32:47;;;;;;;;;;;;;;;20.94;100.00;95431.47;10476304;28;2029;-70
2023/07/20 01:37:51;;;;;;;;;;;;;;;20.89;100.00;95434.47;10476779;28;2108;-69
2023/07/20 01:42:53;;;;;;;;;;;;;;;20.80;100.00;95444.72;10478132;28;5275;-69
2023/07/20 01:47:56;;;;;;;;;;;;;;;21.00;100.00;95438.28;10459474;28;1962;-70
2023/07/20 01:52:59;;;;;;;;;;;;;;;21.05;100.00;95443.47;10480151;28;1930;-69
2023/07/20 01:58:03;;;;;;;;;;;;;;;20.94;100.00;95442.41;10475500;28;1980;-69
2023/07/20 02:03:06;;;;;;;;;;;;;;;21.05;100.00;95442.69;10473473;28;1818;-70
2023/07/20 02:08:09;;;;;;;;;;;;;;;21.22;100.00;95441.59;10481113;28;1957;-68
2023/07/20 02:13:13;;;;;;;;;;;;;;;21.17;100.00;95444.56;10480033;28;1897;-68
2023/07/20 02:18:16;;;;;;;;;;;;;;;21.08;100.00;95446.69;10470583;28;1914;-69
2023/07/20 02:23:19;;;;;;;;;;;;;;;21.43;100.00;95447.66;10462371;28;2686;-69
2023/07/20 02:28:23;;;;;;;;;;;;;;;21.21;100.00;95453.69;10476019;28;1866;-67
2023/07/20 02:33:26;;;;;;;;;;;;;;;21.07;100.00;95445.09;10475449;28;1937;-70
2023/07/20 02:38:29;;;;;;;;;;;;;;;20.94;100.00;95447.09;10475659;28;2038;-69
2023/07/20 02:43:32;;;;;;;;;;;;;;;20.92;100.00;95454.81;10476472;28;1951;-68
2023/07/20 02:48:35;;;;;;;;;;;;;;;20.72;100.00;95451.91;10479905;28;1992;-68
2023/07/20 02:53:39;;;;;;;;;;;;;;;20.77;100.00;95453.63;10475092;28;2000;-70
2023/07/20 02:58:43;;;;;;;;;;;;;;;20.67;100.00;95475.94;10454033;28;2120;-68
2023/07/20 03:03:47;;;;;;;;;;;;;;;20.65;100.00;95467.31;10475440;28;2237;-68
2023/07/20 03:08:53;;;;;;;;;;;;;;;20.56;100.00;95469.38;10477671;28;2072;-68
2023/07/20 03:13:56;;;;;;;;;;;;;;;20.44;100.00;95465.50;10474902;28;1886;-68
2023/07/20 03:19:00;;;;;;;;;;;;;;;20.51;100.00;95471.22;10470320;28;2485;-68
2023/07/20 03:24:04;;;;;;;;;;;;;;;20.53;100.00;95487.25;10473962;28;1854;-69
2023/07/20 03:29:06;;;;;;;;;;;;;;;20.56;100.00;95499.44;10470176;28;1851;-68
2023/07/20 03:34:09;;;;;;;;;;;;;;;20.70;100.00;95502.59;10470903;28;1835;-73
2023/07/20 03:39:14;;;;;;;;;;;;;;;19.81;100.00;95494.28;10474586;28;2011;-71
2023/07/20 03:44:16;;;;;;;;;;;;;;;19.52;100.00;95506.91;10468731;28;5034;-68
2023/07/20 03:49:19;;;;;;;;;;;;;;;18.98;100.00;95517.06;10465098;28;1885;-67
2023/07/20 03:54:22;;;;;;;;;;;;;;;19.15;100.00;95517.72;10477468;28;1831;-68
2023/07/20 03:59:25;;;;;;;;;;;;;;;19.62;100.00;95524.81;10463126;28;2252;-68
2023/07/20 04:04:28;;;;;;;;;;;;;;;19.91;100.00;95526.56;10484485;28;1847;-69
2023/07/20 04:09:30;;;;;;;;;;;;;;;20.00;100.00;95529.19;10481870;28;1846;-69
2023/07/20 04:14:33;;;;;;;;;;;;;;;20.04;100.00;95524.63;10476438;28;2265;-69
2023/07/20 04:19:35;;;;;;;;;;;;;;;19.93;100.00;95516.91;10478808;28;1974;-70
2023/07/20 04:24:38;;;;;;;;;;;;;;;19.87;100.00;95521.00;10482596;28;1999;-68
2023/07/20 04:29:41;;;;;;;;;;;;;;;19.88;100.00;95519.84;10480306;28;1889;-70
2023/07/20 04:34:43;;;;;;;;;;;;;;;19.94;100.00;95521.22;10481778;28;1938;-70
2023/07/20 04:39:46;;;;;;;;;;;;;;;20.03;100.00;95523.84;10482055;28;5038;-67
2023/07/20 04:44:48;;;;;;;;;;;;;;;20.20;100.00;95525.56;10459777;28;1960;-69
2023/07/20 04:49:51;;;;;;;;;;;;;;;20.06;100.00;95534.09;10480272;28;2017;-69
2023/07/20 04:54:54;;;;;;;;;;;;;;;19.64;100.00;95544.34;10479708;28;1894;-68
2023/07/20 04:59:59;;;;;;;;;;;;;;;19.58;100.00;95545.69;10474748;28;1984;-69
2023/07/20 05:05:05;;;;;;;;;;;;;;;19.61;100.00;95545.03;10480150;28;1914;-71
2023/07/20 05:10:08;;;;;;;;;;;;;;;19.75;100.00;95544.72;10477460;28;2411;-68
2023/07/20 05:15:11;;;;;;;;;;;;;;;19.84;100.00;95548.94;10480736;28;1866;-70
2023/07/20 05:20:14;;;;;;;;;;;;;;;20.19;100.00;95543.09;10485761;28;1913;-71
2023/07/20 05:25:20;;;;;;;;;;;;;;;20.32;100.00;95549.34;10479014;28;1901;-72
2023/07/20 05:30:22;;;;;;;;;;;;;;;20.36;100.00;95542.03;10485352;28;1937;-67
2023/07/20 05:35:26;;;;;;;;;;;;;;;20.46;100.00;95542.44;10480792;28;1901;-78
2023/07/20 05:40:28;;;;;;;;;;;;;;;20.05;100.00;95542.63;10482960;28;5140;-81
2023/07/20 05:45:31;;;;;;;;;;;;;;;19.95;100.00;95550.09;10475010;28;1885;-79
2023/07/20 05:50:34;;;;;;;;;;;;;;;19.81;100.00;95549.63;10469873;28;1921;-79
2023/07/20 05:55:39;;;;;;;;;;;;;;;19.80;100.00;95552.69;10489538;28;1976;-81
2023/07/20 06:00:44;;;;;;;;;;;;;;;19.69;100.00;95565.97;10486978;28;1958;-81
2023/07/20 06:05:46;;;;;;;;;;;;;;;19.80;100.00;95563.59;10495255;28;2260;-80
2023/07/20 06:10:51;;;;;;;;;;;;;;;19.85;100.00;95566.91;10487718;28;1830;-81
2023/07/20 06:15:55;;;;;;;;;;;;;;;19.88;100.00;95555.31;10482593;28;1886;-82
2023/07/20 06:20:58;;;;;;;;;;;;;;;20.66;100.00;95551.63;10481645;28;1965;-81
2023/07/20 06:26:01;;;;;;;;;;;;;;;20.33;100.00;95559.13;10483853;28;1869;-81
2023/07/20 06:31:04;;;;;;;;;;;;;;;20.73;100.00;95562.75;10464326;28;2120;-81
2023/07/20 06:36:07;;;;;;;;;;;;;;;21.29;100.00;95551.97;10476248;28;2068;-81
2023/07/20 06:41:09;;;;;;;;;;;;;;;20.96;100.00;95559.53;10481038;28;5050;-81
2023/07/20 06:46:15;;;;;;;;;;;;;;;21.27;99.92;95556.97;10480090;28;1905;-82
2023/07/20 06:51:18;;;;;;;;;;;;;;;21.23;98.65;95555.25;10464877;28;1864;-82
2023/07/20 06:56:24;;;;;;;;;;;;;;;20.74;100.00;95556.19;10475615;28;1972;-81
2023/07/20 07:01:30;;;;;;;;;;;;;;;20.83;100.00;95561.50;10476818;28;2292;-81
2023/07/20 07:06:36;;;;;;;;;;;;;;;20.56;100.00;95562.22;10479811;28;1866;-81
2023/07/20 07:11:39;;;;;;;;;;;;;;;20.69;100.00;95555.63;10472939;28;1913;-80
2023/07/20 07:16:42;;;;;;;;;;;;;;;21.00;100.00;95552.25;10476648;28;1974;-80
2023/07/20 07:21:46;;;;;;;;;;;;;;;21.89;100.00;95551.25;10473955;28;1955;-82
2023/07/20 07:26:49;;;;;;;;;;;;;;;22.99;92.54;95545.72;10476125;28;1957;-79
2023/07/20 07:31:54;;;;;;;;;;;;;;;23.19;89.13;95554.75;10479227;28;1906;-82
2023/07/20 07:36:58;;;;;;;;;;;;;;;23.45;84.64;95556.84;10468194;28;2012;-81
2023/07/20 07:42:09;;;;;;;;;;;;;;;23.64;81.73;95562.34;10474896;28;5093;-82
2023/07/20 07:47:12;;;;;;;;;;;;;;;23.79;80.55;95552.44;10472521;28;1901;-81
2023/07/20 07:52:15;;;;;;;;;;;;;;;24.20;76.36;95558.28;10473885;28;1879;-81
2023/07/20 07:57:18;;;;;;;;;;;;;;;23.90;72.92;95560.88;10473629;28;2416;-82
2023/07/20 08:02:22;;;;;;;;;;;;;;;22.86;78.16;95555.19;10470059;28;1984;-82
2023/07/20 08:07:26;;;;;;;;;;;;;;;23.91;75.24;95551.47;10473943;28;1990;-82
2023/07/20 08:12:30;;;;;;;;;;;;;;;24.31;68.99;95553.75;10470317;28;1847;-83
2023/07/20 08:17:34;;;;;;;;;;;;;;;24.26;70.10;95562.28;10473308;28;1906;-82
2023/07/20 08:22:38;;;;;;;;;;;;;;;23.96;74.50;95562.94;10474301;28;1893;-82
2023/07/20 08:27:44;;;;;;;;;;;;;;;23.70;74.75;95563.63;10476848;28;1964;-82
2023/07/20 08:32:47;;;;;;;;;;;;;;;25.20;69.58;95562.59;10468655;28;2116;-82
2023/07/20 08:37:50;;;;;;;;;;;;;;;25.27;63.14;95560.72;10472813;28;1977;-82
2023/07/20 08:42:55;;;;;;;;;;;;;;;24.56;61.59;95567.94;10473950;28;5054;-83
2023/07/20 08:47:57;;;;;;;;;;;;;;;24.18;67.86;95568.84;10479247;28;1981;-82
2023/07/20 08:53:01;;;;;;;;;;;;;;;24.48;63.63;95569.75;10479046;28;2056;-81
2023/07/20 08:58:03;;;;;;;;;;;;;;;24.06;65.87;95567.06;10482217;28;1930;-82
2023/07/20 09:03:09;;;;;;;;;;;;;;;24.53;63.44;95557.66;10484531;28;2033;-82
2023/07/20 09:08:13;;;;;;;;;;;;;;;25.22;65.25;95546.50;10482677;28;1974;-82
2023/07/20 09:13:18;;;;;;;;;;;;;;;26.51;62.35;95545.94;10479142;28;1891;-81
2023/07/20 09:18:23;;;;;;;;;;;;;;;25.60;60.93;95548.16;10476329;28;1971;-82
2023/07/20 09:23:25;;;;;;;;;;;;;;;26.34;59.62;95541.84;10476453;28;1877;-82
2023/07/20 09:28:29;;;;;;;;;;;;;;;26.15;57.74;95540.13;10466249;28;1919;-83
2023/07/20 09:33:33;;;;;;;;;;;;;;;26.60;55.05;95527.91;10478890;28;1905;-82
2023/07/20 09:38:36;;;;;;;;;;;;;;;26.15;57.49;95545.63;10484640;28;1945;-82
2023/07/20 09:44:05;;;;;;;;;;;;;;;25.21;53.49;95537.47;10476547;28;1885;-81
2023/07/20 09:49:25;;;;;;;;;;;;;;;24.52;55.48;95542.34;10482046;28;2401;-82
2023/07/20 09:54:31;;;;;;;;;;;;;;;24.04;57.55;95546.59;10459392;28;2010;-82
2023/07/20 09:59:36;;;;;;;;;;;;;;;23.22;61.48;95528.53;10486172;28;1899;-81
2023/07/20 10:04:39;;;;;;;;;;;;;;;23.68;65.33;95526.75;10480664;28;1954;-81
2023/07/20 10:09:42;;;;;;;;;;;;;;;24.23;64.95;95522.59;10457055;28;2007;-82
2023/07/20 10:14:45;;;;;;;;;;;;;;;23.97;66.55;95533.53;10476862;28;1889;-82
2023/07/20 10:19:48;;;;;;;;;;;;;;;24.14;64.35;95524.81;10475330;28;2119;-80
2023/07/20 10:24:54;;;;;;;;;;;;;;;24.50;64.60;95525.44;10481570;28;1957;-82
2023/07/20 10:29:59;;;;;;;;;;;;;;;25.08;63.83;95527.09;10481471;28;1905;-83
2023/07/20 10:35:03;;;;;;;;;;;;;;;24.65;62.56;95524.47;10478559;28;1997;-81
2023/07/20 10:40:05;;;;;;;;;;;;;;;24.94;62.56;95522.13;10480698;28;5026;-80
2023/07/20 10:45:08;;;;;;;;;;;;;;;25.36;61.83;95510.13;10476400;28;2250;-82
2023/07/20 10:50:11;;;;;;;;;;;;;;;26.24;58.27;95510.28;10480672;28;1850;-82
2023/07/20 10:55:14;;;;;;;;;;;;;;;25.75;58.26;95511.38;10455619;28;1830;-81
2023/07/20 11:00:19;;;;;;;;;;;;;;;25.74;59.85;95498.78;10478633;28;1989;-80
2023/07/20 11:05:24;;;;;;;;;;;;;;;25.41;59.83;95509.81;10457102;28;1905;-80
2023/07/20 11:10:27;;;;;;;;;;;;;;;25.36;59.70;95499.13;10476031;28;1950;-80
2023/07/20 11:15:33;;;;;;;;;;;;;;;25.10;62.44;95498.03;10477685;28;2000;-80
2023/07/20 11:20:37;;;;;;;;;;;;;;;25.39;63.22;95495.63;10477269;28;1898;-80
2023/07/20 11:25:40;;;;;;;;;;;;;;;25.37;61.19;95489.69;10485808;28;1834;-80
2023/07/20 11:30:44;;;;;;;;;;;;;;;24.31;62.56;95490.59;10482347;28;1886;-80
2023/07/20 11:35:47;;;;;;;;;;;;;;;25.16;63.76;95482.78;10484165;28;1870;-81
2023/07/20 11:40:50;;;;;;;;;;;;;;;25.78;57.70;95480.34;10483699;28;5137;-81
2023/07/20 11:45:52;;;;;;;;;;;;;;;26.19;56.97;95471.25;10480863;28;2532;-80
2023/07/20 11:50:56;;;;;;;;;;;;;;;25.84;57.24;95476.09;10472426;28;1886;-80
2023/07/20 11:55:59;;;;;;;;;;;;;;;26.11;55.88;95457.44;10477683;28;1807;-80
2023/07/20 12:01:03;;;;;;;;;;;;;;;26.89;53.65;95459.94;10454541;28;2104;-83
2023/07/20 12:06:06;;;;;;;;;;;;;;;25.90;55.57;95442.72;10470996;28;1862;-82
2023/07/20 12:11:09;;;;;;;;;;;;;;;26.70;57.97;95443.69;10475656;28;1901;-82
2023/07/20 12:16:13;;;;;;;;;;;;;;;26.13;55.94;95448.78;10473220;28;1962;-82
2023/07/20 12:21:19;;;;;;;;;;;;;;;25.48;57.31;95441.88;10487253;28;2100;-83
2023/07/20 12:26:23;;;;;;;;;;;;;;;26.40;57.61;95433.69;10486367;28;1831;-81
2023/07/20 12:31:29;;;;;;;;;;;;;;;25.86;56.10;95428.91;10483806;28;2131;-79
2023/07/20 12:36:32;;;;;;;;;;;;;;;25.98;57.25;95425.06;10485169;28;1917;-81
2023/07/20 12:41:39;;;;;;;;;;;;;;;25.68;58.03;95428.69;10469230;28;2276;-80
2023/07/20 12:46:45;;;;;;;;;;;;;;;25.29;59.36;95415.34;10485185;28;1803;-82
2023/07/20 12:51:48;;;;;;;;;;;;;;;26.51;57.42;95408.13;10486117;28;1963;-81
2023/07/20 12:56:52;;;;;;;;;;;;;;;26.24;53.92;95404.78;10476438;28;1877;-81
2023/07/20 13:01:58;;;;;;;;;;;;;;;26.59;55.50;95404.22;10481600;28;1922;-80
2023/07/20 13:07:01;;;;;;;;;;;;;;;26.53;54.63;95394.75;10480118;28;1893;-83
2023/07/20 13:12:34;;;;;;;;;;;;;;;25.46;56.95;95389.19;10481740;28;1891;-82
2023/07/20 13:17:38;;;;;;;;;;;;;;;25.80;56.86;95381.66;10465601;28;1874;-82
2023/07/20 13:22:42;;;;;;;;;;;;;;;26.13;58.71;95383.47;10484302;28;2014;-83
2023/07/20 13:27:44;;;;;;;;;;;;;;;25.77;57.00;95396.19;10483503;28;1930;-81
2023/07/20 13:32:47;;;;;;;;;;;;;;;25.29;58.68;95385.09;10478512;28;1870;-81
2023/07/20 13:37:52;;;;;;;;;;;;;;;25.90;55.48;95373.88;10480435;28;2314;-83
2023/07/20 13:42:54;;;;;;;;;;;;;;;26.53;53.33;95369.94;10480981;28;1902;-83
2023/07/20 13:47:59;;;;;;;;;;;;;;;26.08;54.99;95369.25;10479526;28;1838;-82
2023/07/20 13:53:05;;;;;;;;;;;;;;;26.05;54.26;95359.81;10474755;28;2139;-83
2023/07/20 13:58:11;;;;;;;;;;;;;;;25.95;54.10;95355.00;10480359;28;1945;-81
2023/07/20 14:03:15;;;;;;;;;;;;;;;26.41;52.31;95335.25;10489383;28;1882;-88
2023/07/20 14:08:23;;;;;;;;;;;;;;;27.19;51.37;95332.00;10475120;28;1917;-87
2023/07/20 14:13:32;;;;;;;;;;;;;;;26.52;51.75;95327.03;10489984;28;2041;-87
2023/07/20 14:18:52;;;;;;;;;;;;;;;26.88;51.60;95330.72;10482455;28;2228;-89
2023/07/20 14:23:59;;;;;;;;;;;;;;;25.94;54.04;95325.09;10486323;28;1956;-85
2023/07/20 14:29:04;;;;;;;;;;;;;;;25.66;54.63;95320.94;10473566;28;1890;-82
2023/07/20 14:34:06;;;;;;;;;;;;;;;25.38;57.64;95315.19;10474329;28;2352;-82
2023/07/20 14:39:09;;;;;;;;;;;;;;;25.91;54.79;95303.84;10479442;28;1970;-78
2023/07/20 14:44:13;;;;;;;;;;;;;;;26.24;53.83;95303.66;10473821;28;5196;-79
2023/07/20 14:49:15;;;;;;;;;;;;;;;25.49;55.07;95316.88;10469547;28;1826;-79
2023/07/20 14:54:19;;;;;;;;;;;;;;;25.97;54.77;95307.81;10470553;28;1771;-79
2023/07/20 14:59:21;;;;;;;;;;;;;;;26.40;52.36;95295.06;10472503;28;1987;-76
2023/07/20 15:04:24;;;;;;;;;;;;;;;25.99;53.50;95299.97;10482127;28;2021;-77
2023/07/20 15:09:27;;;;;;;;;;;;;;;26.52;51.47;95296.72;10464125;28;1858;-77
2023/07/20 15:14:30;;;;;;;;;;;;;;;26.97;51.44;95294.47;10478551;28;1866;-75
2023/07/20 15:19:35;;;;;;;;;;;;;;;27.08;49.43;95292.56;10476233;28;2020;-76
2023/07/20 15:24:38;;;;;;;;;;;;;;;26.80;50.78;95283.03;10475339;28;2005;-75
2023/07/20 15:29:51;;;;;;;;;;;;;;;26.68;49.74;95275.13;10462388;28;1934;-78
2023/07/20 15:34:54;;;;;;;;;;;;;;;26.21;51.09;95276.88;10481942;28;1870;-77
2023/07/20 15:40:05;;;;;;;;;;;;;;;25.79;53.54;95275.44;10477456;28;5256;-78
2023/07/20 15:45:07;;;;;;;;;;;;;;;26.20;52.50;95271.75;10479390;28;2103;-77
2023/07/20 15:50:11;;;;;;;;;;;;;;;26.27;52.37;95272.56;10479883;28;1882;-75
2023/07/20 15:55:15;;;;;;;;;;;;;;;25.88;53.87;95262.13;10479627;28;1992;-78
2023/07/20 16:00:20;;;;;;;;;;;;;;;25.98;52.57;95265.34;10484038;28;1961;-79
2023/07/20 16:05:27;;;;;;;;;;;;;;;25.79;54.30;95258.94;10476392;28;2080;-77
2023/07/20 16:10:42;;;;;;;;;;;;;;;25.66;53.07;95254.88;10457132;28;1868;-78
2023/07/20 16:15:54;;;;;;;;;;;;;;;25.23;54.65;95251.81;10485752;28;1862;-77
2023/07/20 16:20:58;;;;;;;;;;;;;;;25.13;55.33;95243.47;10470525;28;1985;-77
2023/07/20 16:26:01;;;;;;;;;;;;;;;25.24;55.17;95239.63;10476344;28;2220;-76
2023/07/20 16:31:04;;;;;;;;;;;;;;;25.03;55.58;95228.44;10477453;28;1867;-76
2023/07/20 16:36:08;;;;;;;;;;;;;;;25.01;54.97;95231.56;10469641;28;1913;-75
2023/07/20 16:41:11;;;;;;;;;;;;;;;24.63;55.62;95240.22;10479077;28;5093;-77
2023/07/20 16:46:13;;;;;;;;;;;;;;;24.27;58.36;95237.84;10473167;28;2131;-70
2023/07/20 16:51:19;;;;;;;;;;;;;;;24.30;57.88;95230.00;10470175;28;2002;-68
2023/07/20 16:56:22;;;;;;;;;;;;;;;24.52;58.60;95229.13;10469286;28;1902;-69
2023/07/20 17:01:24;;;;;;;;;;;;;;;24.52;56.83;95226.38;10472127;28;2009;-69
2023/07/20 17:06:28;;;;;;;;;;;;;;;24.13;58.73;95221.19;10479992;28;1897;-68
2023/07/20 17:11:31;;;;;;;;;;;;;;;24.24;58.93;95226.81;10477453;28;1942;-67
2023/07/20 17:16:34;;;;;;;;;;;;;;;24.28;58.37;95222.94;10459445;28;1988;-68
2023/07/20 17:21:37;;;;;;;;;;;;;;;24.15;58.35;95229.84;10468018;28;2317;-66
2023/07/20 17:26:40;;;;;;;;;;;;;;;24.05;60.17;95225.03;10477124;28;1859;-68
2023/07/20 17:31:46;;;;;;;;;;;;;;;24.16;57.93;95225.94;10475524;28;1956;-66
2023/07/20 17:36:50;;;;;;;;;;;;;;;23.94;57.52;95224.88;10477386;28;1890;-67
2023/07/20 17:41:56;;;;;;;;;;;;;;;23.66;58.42;95235.47;10479319;28;5217;-66
2023/07/20 17:46:59;;;;;;;;;;;;;;;23.67;60.10;95232.38;10473958;28;1897;-67
2023/07/20 17:52:05;;;;;;;;;;;;;;;23.73;58.97;95230.09;10473363;28;1965;-66
2023/07/20 17:57:08;;;;;;;;;;;;;;;23.83;58.37;95228.66;10475444;28;1918;-67
2023/07/20 18:02:11;;;;;;;;;;;;;;;23.84;58.55;95224.72;10475634;28;1909;-67
2023/07/20 18:07:15;;;;;;;;;;;;;;;23.64;58.98;95222.13;10467679;28;1918;-67
2023/07/20 18:12:18;;;;;;;;;;;;;;;23.69;58.33;95223.75;10474000;28;1913;-67
2023/07/20 18:17:21;;;;;;;;;;;;;;;23.55;57.49;95229.81;10472436;28;2378;-69
2023/07/20 18:22:28;;;;;;;;;;;;;;;23.55;57.17;95224.31;10466869;28;1957;-67
2023/07/20 18:27:32;;;;;;;;;;;;;;;23.29;56.78;95232.53;10474634;28;1882;-69
2023/07/20 18:32:35;;;;;;;;;;;;;;;23.19;57.02;95225.72;10463488;28;1888;-68
2023/07/20 18:37:38;;;;;;;;;;;;;;;23.06;58.32;95225.13;10474242;28;2043;-67
2023/07/20 18:42:41;;;;;;;;;;;;;;;22.89;58.42;95225.59;10476430;28;5090;-67
2023/07/20 18:47:47;;;;;;;;;;;;;;;22.78;59.19;95225.41;10473575;28;2147;-67
2023/07/20 18:52:51;;;;;;;;;;;;;;;22.71;60.43;95228.00;10474704;28;1901;-66
2023/07/20 18:57:53;;;;;;;;;;;;;;;22.60;59.35;95230.56;10471117;28;1984;-67
2023/07/20 19:02:56;;;;;;;;;;;;;;;22.51;59.89;95230.00;10478044;28;2020;-66
2023/07/20 19:08:01;;;;;;;;;;;;;;;22.43;61.23;95239.25;10475285;28;1917;-66
2023/07/20 19:13:03;;;;;;;;;;;;;;;22.35;60.73;95243.78;10471611;28;2432;-67
2023/07/20 19:18:07;;;;;;;;;;;;;;;22.29;62.30;95253.44;10471705;28;1867;-67
2023/07/20 19:23:10;;;;;;;;;;;;;;;22.25;61.85;95251.78;10473138;28;2084;-67
2023/07/20 19:28:12;;;;;;;;;;;;;;;22.22;61.41;95258.00;10474000;28;1854;-66
2023/07/20 19:33:15;;;;;;;;;;;;;;;22.23;60.36;95265.84;10459040;28;1862;-67
2023/07/20 19:38:18;;;;;;;;;;;;;;;22.14;61.78;95268.03;10471581;28;1979;-68
2023/07/20 19:43:22;;;;;;;;;;;;;;;22.17;62.30;95271.97;10472432;28;5105;-68
2023/07/20 19:48:25;;;;;;;;;;;;;;;22.19;66.21;95280.59;10472342;28;1909;-66
2023/07/20 19:53:29;;;;;;;;;;;;;;;22.10;64.88;95283.56;10472651;28;1872;-66
2023/07/20 19:58:33;;;;;;;;;;;;;;;22.08;65.58;95283.91;10471269;28;1922;-67
2023/07/20 20:03:38;;;;;;;;;;;;;;;22.05;66.43;95284.59;10475406;28;1902;-68
2023/07/20 20:08:43;;;;;;;;;;;;;;;22.01;66.22;95280.19;10471675;28;2455;-67
2023/07/20 20:13:45;;;;;;;;;;;;;;;21.89;67.60;95278.41;10477989;28;1885;-68
2023/07/20 20:18:48;;;;;;;;;;;;;;;21.91;67.24;95281.56;10472566;28;1963;-67
2023/07/20 20:23:54;;;;;;;;;;;;;;;21.88;68.28;95285.00;10455986;28;2107;-68
2023/07/20 20:28:57;;;;;;;;;;;;;;;21.70;73.24;95275.63;10471158;28;2253;-67
2023/07/20 20:34:00;;;;;;;;;;;;;;;21.55;71.92;95278.03;10481783;28;1947;-66
2023/07/20 20:39:03;;;;;;;;;;;;;;;21.44;74.49;95285.22;10478288;28;1862;-68
2023/07/20 20:44:06;;;;;;;;;;;;;;;21.27;78.11;95278.13;10479525;28;5130;-66
2023/07/20 20:49:09;;;;;;;;;;;;;;;21.19;80.03;95270.13;10466244;28;1850;-67
2023/07/20 20:54:12;;;;;;;;;;;;;;;21.13;80.18;95274.25;10480491;28;1869;-66
2023/07/20 20:59:19;;;;;;;;;;;;;;;20.93;83.62;95276.09;10480380;28;2035;-67
2023/07/20 21:04:24;;;;;;;;;;;;;;;20.84;84.45;95270.78;10482430;28;2321;-67
2023/07/20 21:09:27;;;;;;;;;;;;;;;20.80;83.23;95261.72;10482659;28;1947;-66
2023/07/20 21:14:30;;;;;;;;;;;;;;;20.69;86.04;95263.38;10486694;28;1846;-67
2023/07/20 21:19:32;;;;;;;;;;;;;;;20.67;88.91;95257.47;10479600;28;1885;-69
2023/07/20 21:24:37;;;;;;;;;;;;;;;20.58;88.33;95259.56;10483536;28;1926;-67
2023/07/20 21:29:40;;;;;;;;;;;;;;;20.56;90.00;95256.41;10483750;28;1850;-66
2023/07/20 21:34:43;;;;;;;;;;;;;;;20.54;90.54;95255.94;10483588;28;2067;-66
2023/07/20 21:39:45;;;;;;;;;;;;;;;20.49;89.44;95248.81;10479180;28;5018;-66
2023/07/20 21:44:48;;;;;;;;;;;;;;;20.80;96.21;95272.63;10476768;28;1981;-67
2023/07/20 21:49:51;;;;;;;;;;;;;;;20.26;93.83;95251.28;10475508;28;1951;-65
2023/07/20 21:54:54;;;;;;;;;;;;;;;20.12;95.44;95253.63;10477010;28;2147;-66
2023/07/20 21:59:57;;;;;;;;;;;;;;;19.92;95.70;95258.91;10477710;28;2391;-68
2023/07/20 22:05:00;;;;;;;;;;;;;;;19.90;97.61;95255.72;10469324;28;1977;-67
2023/07/20 22:10:03;;;;;;;;;;;;;;;19.83;95.35;95252.78;10473722;28;1883;-67
2023/07/20 22:15:08;;;;;;;;;;;;;;;19.68;96.18;95258.97;10476758;28;1826;-66
2023/07/20 22:20:13;;;;;;;;;;;;;;;19.85;96.30;95256.00;10478804;28;1838;-68
2023/07/20 22:25:16;;;;;;;;;;;;;;;19.84;96.58;95253.59;10477883;28;1952;-69
2023/07/20 22:30:20;;;;;;;;;;;;;;;19.72;98.08;95254.41;10477001;28;1862;-68
2023/07/20 22:35:23;;;;;;;;;;;;;;;19.63;99.42;95254.53;10457462;28;1982;-68
2023/07/20 22:40:25;;;;;;;;;;;;;;;19.57;100.00;95255.09;10478091;28;5074;-68
2023/07/20 22:45:28;;;;;;;;;;;;;;;19.61;100.00;95250.59;10474750;28;1838;-67
2023/07/20 22:50:31;;;;;;;;;;;;;;;19.58;100.00;95241.13;10475423;28;1914;-65
2023/07/20 22:55:34;;;;;;;;;;;;;;;19.57;100.00;95250.44;10475585;28;1858;-66
2023/07/20 23:00:39;;;;;;;;;;;;;;;19.53;100.00;95251.44;10472101;28;1957;-66
2023/07/20 23:05:41;;;;;;;;;;;;;;;19.51;100.00;95257.25;10473367;28;1842;-67
2023/07/20 23:10:44;;;;;;;;;;;;;;;19.30;100.00;95246.50;10476870;28;1911;-67
2023/07/20 23:15:47;;;;;;;;;;;;;;;19.36;100.00;95242.41;10475037;28;2049;-67
2023/07/20 23:20:53;;;;;;;;;;;;;;;19.50;100.00;95228.41;10479307;28;1921;-67
2023/07/20 23:25:56;;;;;;;;;;;;;;;19.40;100.00;95226.16;10475625;28;1939;-69
2023/07/20 23:30:59;;;;;;;;;;;;;;;19.27;100.00;95219.13;10479166;28;1943;-67
2023/07/20 23:36:07;;;;;;;;;;;;;;;19.25;100.00;95215.97;10469862;28;1835;-66
2023/07/20 23:41:12;;;;;;;;;;;;;;;19.15;100.00;95203.59;10480426;28;5125;-67
2023/07/20 23:46:20;;;;;;;;;;;;;;;19.26;100.00;95191.09;10478724;28;1890;-67
2023/07/20 23:51:23;;;;;;;;;;;;;;;19.13;100.00;95190.31;10480511;28;1901;-66
2023/07/20 23:56:29;;;;;;;;;;;;;;;19.24;100.00;95182.47;10466983;28;1840;-67
